sensor_id;sensor_type;location;lat;lon;timestamp;P1;durP1;ratioP1;P2;durP2;ratioP2
29246;SDS011;16272;48.188;9.964;2023-08-01T00:01:31;8.15;;;2.58;;
29246;SDS011;16272;48.188;9.964;2023-08-01T00:03:57;8.35;;;2.90;;
29246;SDS011;16272;48.188;9.964;2023-08-01T00:06:22;7.53;;;2.63;;
29246;SDS011;16272;48.188;9.964;2023-08-01T00:08:49;8.10;;;2.58;;
29246;SDS011;16272;48.188;9.964;2023-08-01T00:11:15;8.60;;;2.87;;
29246;SDS011;16272;48.188;9.964;2023-08-01T00:13:41;8.35;;;2.85;;
29246;SDS011;16272;48.188;9.964;2023-08-01T00:16:07;8.88;;;2.75;;
29246;SDS011;16272;48.188;9.964;2023-08-01T00:18:33;8.43;;;3.53;;
29246;SDS011;16272;48.188;9.964;2023-08-01T00:20:58;7.90;;;2.70;;
29246;SDS011;16272;48.188;9.964;2023-08-01T00:23:24;7.90;;;3.10;;
29246;SDS011;16272;48.188;9.964;2023-08-01T00:25:49;8.00;;;3.00;;
29246;SDS011;16272;48.188;9.964;2023-08-01T00:28:19;8.03;;;2.57;;
29246;SDS011;16272;48.188;9.964;2023-08-01T00:30:45;7.38;;;2.70;;
29246;SDS011;16272;48.188;9.964;2023-08-01T00:33:10;9.40;;;2.97;;
29246;SDS011;16272;48.188;9.964;2023-08-01T00:35:35;7.67;;;2.67;;
29246;SDS011;16272;48.188;9.964;2023-08-01T00:38:00;7.63;;;2.80;;
29246;SDS011;16272;48.188;9.964;2023-08-01T00:40:32;7.07;;;2.57;;
29246;SDS011;16272;48.188;9.964;2023-08-01T00:42:58;7.87;;;2.60;;
29246;SDS011;16272;48.188;9.964;2023-08-01T00:45:24;7.97;;;3.22;;
29246;SDS011;16272;48.188;9.964;2023-08-01T00:47:53;8.77;;;3.13;;
29246;SDS011;16272;48.188;9.964;2023-08-01T00:50:20;9.00;;;2.80;;
29246;SDS011;16272;48.188;9.964;2023-08-01T00:52:47;8.32;;;3.20;;
29246;SDS011;16272;48.188;9.964;2023-08-01T00:55:14;8.70;;;2.63;;
29246;SDS011;16272;48.188;9.964;2023-08-01T00:57:40;7.07;;;2.60;;
29246;SDS011;16272;48.188;9.964;2023-08-01T01:00:06;9.03;;;3.00;;
29246;SDS011;16272;48.188;9.964;2023-08-01T01:02:32;6.80;;;2.78;;
29246;SDS011;16272;48.188;9.964;2023-08-01T01:04:57;7.60;;;2.77;;
29246;SDS011;16272;48.188;9.964;2023-08-01T01:07:22;9.47;;;3.23;;
29246;SDS011;16272;48.188;9.964;2023-08-01T01:09:49;8.50;;;2.60;;
29246;SDS011;16272;48.188;9.964;2023-08-01T01:12:15;7.77;;;2.60;;
29246;SDS011;16272;48.188;9.964;2023-08-01T01:14:40;7.53;;;2.60;;
29246;SDS011;16272;48.188;9.964;2023-08-01T01:17:06;8.77;;;3.23;;
29246;SDS011;16272;48.188;9.964;2023-08-01T01:19:31;9.20;;;2.70;;
29246;SDS011;16272;48.188;9.964;2023-08-01T01:21:56;9.30;;;2.90;;
29246;SDS011;16272;48.188;9.964;2023-08-01T01:24:23;7.97;;;2.72;;
29246;SDS011;16272;48.188;9.964;2023-08-01T01:26:49;8.30;;;2.88;;
29246;SDS011;16272;48.188;9.964;2023-08-01T01:29:16;7.75;;;2.78;;
29246;SDS011;16272;48.188;9.964;2023-08-01T01:31:43;8.60;;;2.97;;
29246;SDS011;16272;48.188;9.964;2023-08-01T01:34:08;8.13;;;2.83;;
29246;SDS011;16272;48.188;9.964;2023-08-01T01:36:34;7.83;;;2.77;;
29246;SDS011;16272;48.188;9.964;2023-08-01T01:38:59;7.10;;;2.70;;
29246;SDS011;16272;48.188;9.964;2023-08-01T01:41:25;6.83;;;2.50;;
29246;SDS011;16272;48.188;9.964;2023-08-01T01:43:50;8.70;;;3.23;;
29246;SDS011;16272;48.188;9.964;2023-08-01T01:46:16;9.30;;;3.20;;
29246;SDS011;16272;48.188;9.964;2023-08-01T01:48:41;8.27;;;3.00;;
29246;SDS011;16272;48.188;9.964;2023-08-01T01:51:07;8.85;;;3.58;;
29246;SDS011;16272;48.188;9.964;2023-08-01T01:53:32;8.47;;;3.00;;
29246;SDS011;16272;48.188;9.964;2023-08-01T01:55:58;8.43;;;3.20;;
29246;SDS011;16272;48.188;9.964;2023-08-01T01:58:23;7.90;;;2.97;;
29246;SDS011;16272;48.188;9.964;2023-08-01T02:00:49;8.30;;;2.70;;
29246;SDS011;16272;48.188;9.964;2023-08-01T02:03:14;8.67;;;3.10;;
29246;SDS011;16272;48.188;9.964;2023-08-01T02:05:40;7.47;;;2.80;;
29246;SDS011;16272;48.188;9.964;2023-08-01T02:08:05;8.40;;;2.95;;
29246;SDS011;16272;48.188;9.964;2023-08-01T02:10:31;8.13;;;3.13;;
29246;SDS011;16272;48.188;9.964;2023-08-01T02:12:56;8.07;;;3.00;;
29246;SDS011;16272;48.188;9.964;2023-08-01T02:15:22;8.67;;;3.13;;
29246;SDS011;16272;48.188;9.964;2023-08-01T02:17:47;8.60;;;3.50;;
29246;SDS011;16272;48.188;9.964;2023-08-01T02:20:12;9.13;;;3.30;;
29246;SDS011;16272;48.188;9.964;2023-08-01T02:22:38;10.20;;;3.30;;
29246;SDS011;16272;48.188;9.964;2023-08-01T02:25:03;8.83;;;3.17;;
29246;SDS011;16272;48.188;9.964;2023-08-01T02:27:29;8.60;;;3.30;;
29246;SDS011;16272;48.188;9.964;2023-08-01T02:29:54;8.63;;;3.10;;
29246;SDS011;16272;48.188;9.964;2023-08-01T02:32:19;8.40;;;3.10;;
29246;SDS011;16272;48.188;9.964;2023-08-01T02:34:44;8.33;;;3.33;;
29246;SDS011;16272;48.188;9.964;2023-08-01T02:37:10;9.13;;;3.13;;
29246;SDS011;16272;48.188;9.964;2023-08-01T02:39:35;10.47;;;3.33;;
29246;SDS011;16272;48.188;9.964;2023-08-01T02:42:01;9.13;;;2.90;;
29246;SDS011;16272;48.188;9.964;2023-08-01T02:44:26;8.68;;;3.22;;
29246;SDS011;16272;48.188;9.964;2023-08-01T02:46:51;7.80;;;3.10;;
29246;SDS011;16272;48.188;9.964;2023-08-01T02:49:17;8.10;;;3.27;;
29246;SDS011;16272;48.188;9.964;2023-08-01T02:51:42;8.47;;;3.50;;
29246;SDS011;16272;48.188;9.964;2023-08-01T02:54:08;8.50;;;3.10;;
29246;SDS011;16272;48.188;9.964;2023-08-01T02:56:33;8.17;;;2.90;;
29246;SDS011;16272;48.188;9.964;2023-08-01T02:58:58;8.90;;;3.33;;
29246;SDS011;16272;48.188;9.964;2023-08-01T03:01:23;9.13;;;3.13;;
29246;SDS011;16272;48.188;9.964;2023-08-01T03:03:49;8.60;;;3.20;;
29246;SDS011;16272;48.188;9.964;2023-08-01T03:06:14;11.30;;;3.67;;
29246;SDS011;16272;48.188;9.964;2023-08-01T03:08:40;8.32;;;3.13;;
29246;SDS011;16272;48.188;9.964;2023-08-01T03:11:05;9.40;;;2.97;;
29246;SDS011;16272;48.188;9.964;2023-08-01T03:13:30;7.90;;;3.07;;
29246;SDS011;16272;48.188;9.964;2023-08-01T03:15:56;8.23;;;3.07;;
29246;SDS011;16272;48.188;9.964;2023-08-01T03:18:21;9.10;;;3.23;;
29246;SDS011;16272;48.188;9.964;2023-08-01T03:20:46;9.70;;;3.80;;
29246;SDS011;16272;48.188;9.964;2023-08-01T03:23:12;8.93;;;3.80;;
29246;SDS011;16272;48.188;9.964;2023-08-01T03:25:37;8.97;;;3.40;;
29246;SDS011;16272;48.188;9.964;2023-08-01T03:28:03;8.23;;;3.23;;
29246;SDS011;16272;48.188;9.964;2023-08-01T03:30:29;9.10;;;3.10;;
29246;SDS011;16272;48.188;9.964;2023-08-01T03:32:56;8.05;;;3.00;;
29246;SDS011;16272;48.188;9.964;2023-08-01T03:35:22;10.13;;;3.43;;
29246;SDS011;16272;48.188;9.964;2023-08-01T03:37:48;10.25;;;3.85;;
29246;SDS011;16272;48.188;9.964;2023-08-01T03:40:14;9.47;;;3.53;;
29246;SDS011;16272;48.188;9.964;2023-08-01T03:42:39;11.23;;;3.40;;
29246;SDS011;16272;48.188;9.964;2023-08-01T03:45:05;8.90;;;3.22;;
29246;SDS011;16272;48.188;9.964;2023-08-01T03:47:31;8.45;;;2.97;;
29246;SDS011;16272;48.188;9.964;2023-08-01T03:49:56;10.90;;;3.63;;
29246;SDS011;16272;48.188;9.964;2023-08-01T03:52:22;9.93;;;3.37;;
29246;SDS011;16272;48.188;9.964;2023-08-01T03:54:47;9.17;;;3.80;;
29246;SDS011;16272;48.188;9.964;2023-08-01T03:57:13;11.60;;;3.92;;
29246;SDS011;16272;48.188;9.964;2023-08-01T03:59:39;8.87;;;4.03;;
29246;SDS011;16272;48.188;9.964;2023-08-01T04:02:04;9.60;;;3.77;;
29246;SDS011;16272;48.188;9.964;2023-08-01T04:04:29;11.98;;;3.80;;
29246;SDS011;16272;48.188;9.964;2023-08-01T04:06:56;10.73;;;3.80;;
29246;SDS011;16272;48.188;9.964;2023-08-01T04:09:21;9.67;;;3.60;;
29246;SDS011;16272;48.188;9.964;2023-08-01T04:11:47;8.90;;;3.67;;
29246;SDS011;16272;48.188;9.964;2023-08-01T04:14:12;9.27;;;3.67;;
29246;SDS011;16272;48.188;9.964;2023-08-01T04:16:37;10.27;;;3.80;;
29246;SDS011;16272;48.188;9.964;2023-08-01T04:19:02;9.80;;;4.20;;
29246;SDS011;16272;48.188;9.964;2023-08-01T04:21:28;10.33;;;4.13;;
29246;SDS011;16272;48.188;9.964;2023-08-01T04:23:53;8.73;;;3.73;;
29246;SDS011;16272;48.188;9.964;2023-08-01T04:26:18;9.50;;;3.67;;
29246;SDS011;16272;48.188;9.964;2023-08-01T04:28:45;10.23;;;4.20;;
29246;SDS011;16272;48.188;9.964;2023-08-01T04:31:11;9.60;;;4.38;;
29246;SDS011;16272;48.188;9.964;2023-08-01T04:33:37;10.17;;;4.47;;
29246;SDS011;16272;48.188;9.964;2023-08-01T04:36:02;9.83;;;3.90;;
29246;SDS011;16272;48.188;9.964;2023-08-01T04:38:27;8.85;;;3.40;;
29246;SDS011;16272;48.188;9.964;2023-08-01T04:40:53;9.83;;;3.50;;
29246;SDS011;16272;48.188;9.964;2023-08-01T04:43:18;8.23;;;3.60;;
29246;SDS011;16272;48.188;9.964;2023-08-01T04:45:43;8.93;;;3.70;;
29246;SDS011;16272;48.188;9.964;2023-08-01T04:48:09;9.50;;;4.00;;
29246;SDS011;16272;48.188;9.964;2023-08-01T04:50:34;8.77;;;3.90;;
29246;SDS011;16272;48.188;9.964;2023-08-01T04:52:59;10.17;;;3.97;;
29246;SDS011;16272;48.188;9.964;2023-08-01T04:55:25;9.63;;;3.88;;
29246;SDS011;16272;48.188;9.964;2023-08-01T04:57:50;8.60;;;3.60;;
29246;SDS011;16272;48.188;9.964;2023-08-01T05:00:16;10.03;;;3.73;;
29246;SDS011;16272;48.188;9.964;2023-08-01T05:02:42;9.25;;;3.80;;
29246;SDS011;16272;48.188;9.964;2023-08-01T05:05:08;10.33;;;3.93;;
29246;SDS011;16272;48.188;9.964;2023-08-01T05:07:33;9.80;;;3.60;;
29246;SDS011;16272;48.188;9.964;2023-08-01T05:09:58;9.97;;;4.00;;
29246;SDS011;16272;48.188;9.964;2023-08-01T05:12:24;9.53;;;4.10;;
29246;SDS011;16272;48.188;9.964;2023-08-01T05:14:49;11.10;;;3.40;;
29246;SDS011;16272;48.188;9.964;2023-08-01T05:17:14;10.67;;;4.07;;
29246;SDS011;16272;48.188;9.964;2023-08-01T05:19:39;9.30;;;3.90;;
29246;SDS011;16272;48.188;9.964;2023-08-01T05:22:06;10.00;;;3.63;;
29246;SDS011;16272;48.188;9.964;2023-08-01T05:24:31;11.67;;;4.37;;
29246;SDS011;16272;48.188;9.964;2023-08-01T05:26:56;10.63;;;4.10;;
29246;SDS011;16272;48.188;9.964;2023-08-01T05:29:21;9.07;;;3.53;;
29246;SDS011;16272;48.188;9.964;2023-08-01T05:31:47;9.40;;;3.70;;
29246;SDS011;16272;48.188;9.964;2023-08-01T05:34:12;10.97;;;4.07;;
29246;SDS011;16272;48.188;9.964;2023-08-01T05:36:38;9.53;;;3.87;;
29246;SDS011;16272;48.188;9.964;2023-08-01T05:39:03;9.60;;;3.73;;
29246;SDS011;16272;48.188;9.964;2023-08-01T05:41:29;9.10;;;3.70;;
29246;SDS011;16272;48.188;9.964;2023-08-01T05:43:54;11.03;;;3.93;;
29246;SDS011;16272;48.188;9.964;2023-08-01T05:46:19;9.70;;;3.30;;
29246;SDS011;16272;48.188;9.964;2023-08-01T05:48:45;10.43;;;3.80;;
29246;SDS011;16272;48.188;9.964;2023-08-01T05:51:10;10.27;;;3.83;;
29246;SDS011;16272;48.188;9.964;2023-08-01T05:53:35;9.00;;;3.58;;
29246;SDS011;16272;48.188;9.964;2023-08-01T05:56:01;11.20;;;3.90;;
29246;SDS011;16272;48.188;9.964;2023-08-01T05:58:26;8.30;;;3.40;;
29246;SDS011;16272;48.188;9.964;2023-08-01T06:00:52;8.63;;;3.43;;
29246;SDS011;16272;48.188;9.964;2023-08-01T06:03:17;9.13;;;3.60;;
29246;SDS011;16272;48.188;9.964;2023-08-01T06:05:43;9.00;;;3.25;;
29246;SDS011;16272;48.188;9.964;2023-08-01T06:08:08;9.60;;;2.97;;
29246;SDS011;16272;48.188;9.964;2023-08-01T06:10:34;8.60;;;3.23;;
29246;SDS011;16272;48.188;9.964;2023-08-01T06:13:00;8.40;;;3.45;;
29246;SDS011;16272;48.188;9.964;2023-08-01T06:15:26;10.10;;;3.50;;
29246;SDS011;16272;48.188;9.964;2023-08-01T06:17:51;9.23;;;3.20;;
29246;SDS011;16272;48.188;9.964;2023-08-01T06:20:16;8.20;;;3.27;;
29246;SDS011;16272;48.188;9.964;2023-08-01T06:22:42;8.52;;;3.45;;
29246;SDS011;16272;48.188;9.964;2023-08-01T06:25:08;9.23;;;3.47;;
29246;SDS011;16272;48.188;9.964;2023-08-01T06:27:33;8.65;;;3.45;;
29246;SDS011;16272;48.188;9.964;2023-08-01T06:29:59;8.63;;;2.90;;
29246;SDS011;16272;48.188;9.964;2023-08-01T06:32:24;9.03;;;3.13;;
29246;SDS011;16272;48.188;9.964;2023-08-01T06:34:50;8.35;;;2.90;;
29246;SDS011;16272;48.188;9.964;2023-08-01T06:37:15;9.40;;;3.27;;
29246;SDS011;16272;48.188;9.964;2023-08-01T06:39:40;9.20;;;3.40;;
29246;SDS011;16272;48.188;9.964;2023-08-01T06:42:06;8.67;;;3.63;;
29246;SDS011;16272;48.188;9.964;2023-08-01T06:44:31;9.87;;;3.40;;
29246;SDS011;16272;48.188;9.964;2023-08-01T06:46:56;7.53;;;2.70;;
29246;SDS011;16272;48.188;9.964;2023-08-01T06:49:22;8.70;;;3.17;;
29246;SDS011;16272;48.188;9.964;2023-08-01T06:51:47;8.03;;;2.97;;
29246;SDS011;16272;48.188;9.964;2023-08-01T06:54:15;9.73;;;2.87;;
29246;SDS011;16272;48.188;9.964;2023-08-01T06:56:41;9.17;;;3.13;;
29246;SDS011;16272;48.188;9.964;2023-08-01T06:59:12;7.93;;;2.90;;
29246;SDS011;16272;48.188;9.964;2023-08-01T07:01:37;9.45;;;3.40;;
29246;SDS011;16272;48.188;9.964;2023-08-01T07:04:05;7.70;;;2.80;;
29246;SDS011;16272;48.188;9.964;2023-08-01T07:06:30;8.27;;;2.90;;
29246;SDS011;16272;48.188;9.964;2023-08-01T07:08:56;8.73;;;2.60;;
29246;SDS011;16272;48.188;9.964;2023-08-01T07:11:22;8.80;;;3.20;;
29246;SDS011;16272;48.188;9.964;2023-08-01T07:13:48;9.20;;;3.10;;
29246;SDS011;16272;48.188;9.964;2023-08-01T07:16:13;8.10;;;2.93;;
29246;SDS011;16272;48.188;9.964;2023-08-01T07:18:39;7.57;;;2.67;;
29246;SDS011;16272;48.188;9.964;2023-08-01T07:21:05;7.80;;;2.70;;
29246;SDS011;16272;48.188;9.964;2023-08-01T07:23:30;7.97;;;2.97;;
29246;SDS011;16272;48.188;9.964;2023-08-01T07:25:56;7.22;;;2.72;;
29246;SDS011;16272;48.188;9.964;2023-08-01T07:28:22;7.97;;;2.53;;
29246;SDS011;16272;48.188;9.964;2023-08-01T07:30:47;8.97;;;2.70;;
29246;SDS011;16272;48.188;9.964;2023-08-01T07:33:12;8.03;;;2.73;;
29246;SDS011;16272;48.188;9.964;2023-08-01T07:35:38;8.57;;;2.70;;
29246;SDS011;16272;48.188;9.964;2023-08-01T07:38:03;7.20;;;2.50;;
29246;SDS011;16272;48.188;9.964;2023-08-01T07:40:28;7.30;;;2.58;;
29246;SDS011;16272;48.188;9.964;2023-08-01T07:42:54;9.13;;;3.20;;
29246;SDS011;16272;48.188;9.964;2023-08-01T07:45:19;6.77;;;2.40;;
29246;SDS011;16272;48.188;9.964;2023-08-01T07:47:45;7.90;;;2.50;;
29246;SDS011;16272;48.188;9.964;2023-08-01T07:50:10;7.17;;;2.43;;
29246;SDS011;16272;48.188;9.964;2023-08-01T07:52:36;11.17;;;2.83;;
29246;SDS011;16272;48.188;9.964;2023-08-01T07:55:01;8.90;;;2.80;;
29246;SDS011;16272;48.188;9.964;2023-08-01T07:57:26;8.23;;;2.70;;
29246;SDS011;16272;48.188;9.964;2023-08-01T07:59:51;7.33;;;2.40;;
29246;SDS011;16272;48.188;9.964;2023-08-01T08:02:17;7.37;;;2.73;;
29246;SDS011;16272;48.188;9.964;2023-08-01T08:04:42;8.80;;;2.83;;
29246;SDS011;16272;48.188;9.964;2023-08-01T08:07:07;8.37;;;2.90;;
29246;SDS011;16272;48.188;9.964;2023-08-01T08:09:33;9.07;;;2.77;;
29246;SDS011;16272;48.188;9.964;2023-08-01T08:11:58;8.60;;;2.80;;
29246;SDS011;16272;48.188;9.964;2023-08-01T08:14:23;8.17;;;2.60;;
29246;SDS011;16272;48.188;9.964;2023-08-01T08:16:49;8.53;;;3.10;;
29246;SDS011;16272;48.188;9.964;2023-08-01T08:19:15;8.88;;;3.03;;
29246;SDS011;16272;48.188;9.964;2023-08-01T08:21:40;7.83;;;2.60;;
29246;SDS011;16272;48.188;9.964;2023-08-01T08:24:05;7.30;;;2.80;;
29246;SDS011;16272;48.188;9.964;2023-08-01T08:26:31;7.20;;;2.43;;
29246;SDS011;16272;48.188;9.964;2023-08-01T08:28:58;7.57;;;2.65;;
29246;SDS011;16272;48.188;9.964;2023-08-01T08:31:24;7.73;;;2.80;;
29246;SDS011;16272;48.188;9.964;2023-08-01T08:33:49;7.40;;;3.17;;
29246;SDS011;16272;48.188;9.964;2023-08-01T08:36:15;7.70;;;2.40;;
29246;SDS011;16272;48.188;9.964;2023-08-01T08:38:40;9.00;;;2.83;;
29246;SDS011;16272;48.188;9.964;2023-08-01T08:41:09;7.37;;;2.57;;
29246;SDS011;16272;48.188;9.964;2023-08-01T08:43:36;8.82;;;2.60;;
29246;SDS011;16272;48.188;9.964;2023-08-01T08:46:02;7.50;;;2.80;;
29246;SDS011;16272;48.188;9.964;2023-08-01T08:48:29;8.67;;;3.07;;
29246;SDS011;16272;48.188;9.964;2023-08-01T08:50:59;9.32;;;2.70;;
29246;SDS011;16272;48.188;9.964;2023-08-01T08:53:25;8.38;;;3.20;;
29246;SDS011;16272;48.188;9.964;2023-08-01T08:55:51;8.07;;;3.03;;
29246;SDS011;16272;48.188;9.964;2023-08-01T08:58:16;8.17;;;2.90;;
29246;SDS011;16272;48.188;9.964;2023-08-01T09:00:43;8.63;;;3.00;;
29246;SDS011;16272;48.188;9.964;2023-08-01T09:03:08;8.50;;;3.03;;
29246;SDS011;16272;48.188;9.964;2023-08-01T09:05:40;7.60;;;2.87;;
29246;SDS011;16272;48.188;9.964;2023-08-01T09:08:13;8.55;;;2.97;;
29246;SDS011;16272;48.188;9.964;2023-08-01T09:10:44;8.15;;;2.90;;
29246;SDS011;16272;48.188;9.964;2023-08-01T09:13:09;8.37;;;2.77;;
29246;SDS011;16272;48.188;9.964;2023-08-01T09:15:35;8.67;;;3.07;;
29246;SDS011;16272;48.188;9.964;2023-08-01T09:18:05;8.43;;;3.10;;
29246;SDS011;16272;48.188;9.964;2023-08-01T09:20:39;8.90;;;3.17;;
29246;SDS011;16272;48.188;9.964;2023-08-01T09:23:15;9.43;;;3.20;;
29246;SDS011;16272;48.188;9.964;2023-08-01T09:25:41;8.83;;;3.20;;
29246;SDS011;16272;48.188;9.964;2023-08-01T09:28:17;11.23;;;3.20;;
29246;SDS011;16272;48.188;9.964;2023-08-01T09:30:47;8.48;;;3.17;;
29246;SDS011;16272;48.188;9.964;2023-08-01T09:33:16;8.88;;;3.00;;
29246;SDS011;16272;48.188;9.964;2023-08-01T09:35:41;9.07;;;3.17;;
29246;SDS011;16272;48.188;9.964;2023-08-01T09:38:09;9.63;;;3.15;;
29246;SDS011;16272;48.188;9.964;2023-08-01T09:40:36;8.98;;;3.17;;
29246;SDS011;16272;48.188;9.964;2023-08-01T09:43:04;8.37;;;3.00;;
29246;SDS011;16272;48.188;9.964;2023-08-01T09:45:30;8.10;;;2.85;;
29246;SDS011;16272;48.188;9.964;2023-08-01T09:47:55;8.37;;;3.33;;
29246;SDS011;16272;48.188;9.964;2023-08-01T09:50:21;9.03;;;2.80;;
29246;SDS011;16272;48.188;9.964;2023-08-01T09:52:48;8.68;;;2.78;;
29246;SDS011;16272;48.188;9.964;2023-08-01T09:55:19;7.80;;;2.80;;
29246;SDS011;16272;48.188;9.964;2023-08-01T09:57:50;8.63;;;3.10;;
29246;SDS011;16272;48.188;9.964;2023-08-01T10:00:18;7.20;;;2.85;;
29246;SDS011;16272;48.188;9.964;2023-08-01T10:02:43;8.03;;;2.80;;
29246;SDS011;16272;48.188;9.964;2023-08-01T10:05:10;7.65;;;2.53;;
29246;SDS011;16272;48.188;9.964;2023-08-01T10:07:37;8.95;;;2.72;;
29246;SDS011;16272;48.188;9.964;2023-08-01T10:10:04;7.95;;;3.00;;
29246;SDS011;16272;48.188;9.964;2023-08-01T10:12:31;8.48;;;3.13;;
29246;SDS011;16272;48.188;9.964;2023-08-01T10:14:56;7.87;;;2.87;;
29246;SDS011;16272;48.188;9.964;2023-08-01T10:17:22;8.07;;;2.75;;
29246;SDS011;16272;48.188;9.964;2023-08-01T10:19:50;8.30;;;2.90;;
29246;SDS011;16272;48.188;9.964;2023-08-01T10:22:16;8.40;;;2.70;;
29246;SDS011;16272;48.188;9.964;2023-08-01T10:24:43;7.28;;;2.60;;
29246;SDS011;16272;48.188;9.964;2023-08-01T10:27:19;7.80;;;2.85;;
29246;SDS011;16272;48.188;9.964;2023-08-01T10:29:45;7.57;;;2.35;;
29246;SDS011;16272;48.188;9.964;2023-08-01T10:32:27;8.05;;;2.83;;
29246;SDS011;16272;48.188;9.964;2023-08-01T10:34:54;6.67;;;2.10;;
29246;SDS011;16272;48.188;9.964;2023-08-01T10:37:19;7.03;;;2.43;;
29246;SDS011;16272;48.188;9.964;2023-08-01T10:39:45;8.35;;;2.10;;
29246;SDS011;16272;48.188;9.964;2023-08-01T10:42:21;7.13;;;2.40;;
29246;SDS011;16272;48.188;9.964;2023-08-01T10:44:47;7.73;;;2.27;;
29246;SDS011;16272;48.188;9.964;2023-08-01T10:47:12;7.07;;;2.20;;
29246;SDS011;16272;48.188;9.964;2023-08-01T10:49:41;7.10;;;2.40;;
29246;SDS011;16272;48.188;9.964;2023-08-01T10:52:18;7.32;;;2.30;;
29246;SDS011;16272;48.188;9.964;2023-08-01T10:54:59;7.47;;;2.00;;
29246;SDS011;16272;48.188;9.964;2023-08-01T10:57:26;6.72;;;2.45;;
29246;SDS011;16272;48.188;9.964;2023-08-01T10:59:53;7.75;;;2.65;;
29246;SDS011;16272;48.188;9.964;2023-08-01T11:02:21;7.70;;;2.72;;
29246;SDS011;16272;48.188;9.964;2023-08-01T11:04:58;6.75;;;2.60;;
29246;SDS011;16272;48.188;9.964;2023-08-01T11:07:24;7.07;;;2.50;;
29246;SDS011;16272;48.188;9.964;2023-08-01T11:10:01;8.93;;;2.53;;
29246;SDS011;16272;48.188;9.964;2023-08-01T11:12:30;6.68;;;2.05;;
29246;SDS011;16272;48.188;9.964;2023-08-01T11:14:59;6.60;;;2.37;;
29246;SDS011;16272;48.188;9.964;2023-08-01T11:17:25;6.47;;;1.95;;
29246;SDS011;16272;48.188;9.964;2023-08-01T11:19:50;8.10;;;2.53;;
29246;SDS011;16272;48.188;9.964;2023-08-01T11:22:15;6.43;;;2.27;;
29246;SDS011;16272;48.188;9.964;2023-08-01T11:24:40;6.17;;;1.97;;
29246;SDS011;16272;48.188;9.964;2023-08-01T11:27:14;7.45;;;2.50;;
29246;SDS011;16272;48.188;9.964;2023-08-01T11:29:40;7.43;;;2.37;;
29246;SDS011;16272;48.188;9.964;2023-08-01T11:32:06;6.23;;;1.90;;
29246;SDS011;16272;48.188;9.964;2023-08-01T11:34:38;7.35;;;2.58;;
29246;SDS011;16272;48.188;9.964;2023-08-01T11:37:06;6.80;;;2.30;;
29246;SDS011;16272;48.188;9.964;2023-08-01T11:39:31;6.43;;;2.10;;
29246;SDS011;16272;48.188;9.964;2023-08-01T11:41:57;7.03;;;2.67;;
29246;SDS011;16272;48.188;9.964;2023-08-01T11:44:25;7.20;;;2.40;;
29246;SDS011;16272;48.188;9.964;2023-08-01T11:46:50;6.70;;;2.80;;
29246;SDS011;16272;48.188;9.964;2023-08-01T11:49:15;6.40;;;2.30;;
29246;SDS011;16272;48.188;9.964;2023-08-01T11:51:42;7.67;;;2.60;;
29246;SDS011;16272;48.188;9.964;2023-08-01T11:54:09;7.35;;;2.38;;
29246;SDS011;16272;48.188;9.964;2023-08-01T11:56:36;6.93;;;2.60;;
29246;SDS011;16272;48.188;9.964;2023-08-01T11:59:12;7.25;;;2.63;;
29246;SDS011;16272;48.188;9.964;2023-08-01T12:01:42;6.95;;;2.50;;
29246;SDS011;16272;48.188;9.964;2023-08-01T12:04:09;8.40;;;2.30;;
29246;SDS011;16272;48.188;9.964;2023-08-01T12:06:35;8.27;;;2.75;;
29246;SDS011;16272;48.188;9.964;2023-08-01T12:09:06;7.97;;;2.23;;
29246;SDS011;16272;48.188;9.964;2023-08-01T12:11:34;6.88;;;2.53;;
29246;SDS011;16272;48.188;9.964;2023-08-01T12:14:07;7.27;;;2.60;;
29246;SDS011;16272;48.188;9.964;2023-08-01T12:16:36;7.60;;;2.83;;
29246;SDS011;16272;48.188;9.964;2023-08-01T12:19:03;7.57;;;2.70;;
29246;SDS011;16272;48.188;9.964;2023-08-01T12:21:29;7.40;;;2.43;;
29246;SDS011;16272;48.188;9.964;2023-08-01T12:23:55;7.28;;;2.35;;
29246;SDS011;16272;48.188;9.964;2023-08-01T12:26:22;7.13;;;3.00;;
29246;SDS011;16272;48.188;9.964;2023-08-01T12:28:48;9.55;;;2.60;;
29246;SDS011;16272;48.188;9.964;2023-08-01T12:31:16;6.20;;;2.33;;
29246;SDS011;16272;48.188;9.964;2023-08-01T12:33:43;6.70;;;2.40;;
29246;SDS011;16272;48.188;9.964;2023-08-01T12:36:09;7.88;;;2.47;;
29246;SDS011;16272;48.188;9.964;2023-08-01T12:38:34;6.97;;;2.27;;
29246;SDS011;16272;48.188;9.964;2023-08-01T12:41:00;6.93;;;2.57;;
29246;SDS011;16272;48.188;9.964;2023-08-01T12:43:26;9.05;;;2.67;;
29246;SDS011;16272;48.188;9.964;2023-08-01T12:45:52;8.63;;;2.80;;
29246;SDS011;16272;48.188;9.964;2023-08-01T12:48:17;8.17;;;2.57;;
29246;SDS011;16272;48.188;9.964;2023-08-01T12:50:45;8.03;;;2.87;;
29246;SDS011;16272;48.188;9.964;2023-08-01T12:53:11;10.52;;;3.17;;
29246;SDS011;16272;48.188;9.964;2023-08-01T12:55:37;7.43;;;2.70;;
29246;SDS011;16272;48.188;9.964;2023-08-01T12:58:02;7.57;;;2.40;;
29246;SDS011;16272;48.188;9.964;2023-08-01T13:00:29;9.30;;;3.70;;
29246;SDS011;16272;48.188;9.964;2023-08-01T13:02:55;12.55;;;6.30;;
29246;SDS011;16272;48.188;9.964;2023-08-01T13:05:20;15.57;;;7.97;;
29246;SDS011;16272;48.188;9.964;2023-08-01T13:07:45;11.70;;;5.83;;
29246;SDS011;16272;48.188;9.964;2023-08-01T13:10:11;11.50;;;5.80;;
29246;SDS011;16272;48.188;9.964;2023-08-01T13:12:36;9.20;;;3.20;;
29246;SDS011;16272;48.188;9.964;2023-08-01T13:15:01;7.10;;;2.57;;
29246;SDS011;16272;48.188;9.964;2023-08-01T13:17:27;7.80;;;2.60;;
29246;SDS011;16272;48.188;9.964;2023-08-01T13:19:52;7.90;;;2.83;;
29246;SDS011;16272;48.188;9.964;2023-08-01T13:22:17;7.20;;;3.00;;
29246;SDS011;16272;48.188;9.964;2023-08-01T13:24:44;6.43;;;2.67;;
29246;SDS011;16272;48.188;9.964;2023-08-01T13:27:10;7.75;;;2.70;;
29246;SDS011;16272;48.188;9.964;2023-08-01T13:29:36;6.90;;;2.23;;
29246;SDS011;16272;48.188;9.964;2023-08-01T13:32:01;7.10;;;2.27;;
29246;SDS011;16272;48.188;9.964;2023-08-01T13:34:26;10.10;;;2.47;;
29246;SDS011;16272;48.188;9.964;2023-08-01T13:36:52;6.93;;;2.10;;
29246;SDS011;16272;48.188;9.964;2023-08-01T13:39:17;6.60;;;1.90;;
29246;SDS011;16272;48.188;9.964;2023-08-01T13:41:42;6.10;;;1.90;;
29246;SDS011;16272;48.188;9.964;2023-08-01T13:44:07;7.13;;;2.07;;
29246;SDS011;16272;48.188;9.964;2023-08-01T13:46:33;4.83;;;1.50;;
29246;SDS011;16272;48.188;9.964;2023-08-01T13:48:58;6.83;;;1.40;;
29246;SDS011;16272;48.188;9.964;2023-08-01T13:51:24;5.47;;;1.60;;
29246;SDS011;16272;48.188;9.964;2023-08-01T13:53:49;5.20;;;1.83;;
29246;SDS011;16272;48.188;9.964;2023-08-01T13:56:14;4.80;;;1.33;;
29246;SDS011;16272;48.188;9.964;2023-08-01T13:58:40;5.43;;;1.80;;
29246;SDS011;16272;48.188;9.964;2023-08-01T14:01:06;6.33;;;2.17;;
29246;SDS011;16272;48.188;9.964;2023-08-01T14:03:33;5.13;;;1.38;;
29246;SDS011;16272;48.188;9.964;2023-08-01T14:06:09;5.13;;;1.40;;
29246;SDS011;16272;48.188;9.964;2023-08-01T14:08:36;6.35;;;1.30;;
29246;SDS011;16272;48.188;9.964;2023-08-01T14:11:02;4.32;;;1.17;;
29246;SDS011;16272;48.188;9.964;2023-08-01T14:13:28;4.10;;;0.97;;
29246;SDS011;16272;48.188;9.964;2023-08-01T14:15:54;7.70;;;1.17;;
29246;SDS011;16272;48.188;9.964;2023-08-01T14:18:19;3.73;;;1.20;;
29246;SDS011;16272;48.188;9.964;2023-08-01T14:20:44;5.40;;;0.90;;
29246;SDS011;16272;48.188;9.964;2023-08-01T14:23:10;4.60;;;1.10;;
29246;SDS011;16272;48.188;9.964;2023-08-01T14:25:35;4.40;;;1.30;;
29246;SDS011;16272;48.188;9.964;2023-08-01T14:28:01;4.07;;;1.20;;
29246;SDS011;16272;48.188;9.964;2023-08-01T14:30:27;4.93;;;1.00;;
29246;SDS011;16272;48.188;9.964;2023-08-01T14:32:58;5.00;;;1.47;;
29246;SDS011;16272;48.188;9.964;2023-08-01T14:35:34;4.40;;;1.20;;
29246;SDS011;16272;48.188;9.964;2023-08-01T14:38:06;4.68;;;1.20;;
29246;SDS011;16272;48.188;9.964;2023-08-01T14:40:32;4.43;;;1.00;;